createdAt,value
2019-03-21T00:03:25.204Z,8.53
2019-03-21T00:08:26.546Z,9.03
2019-03-21T00:13:28.003Z,8.97
2019-03-21T00:18:30.360Z,8.17
2019-03-21T00:23:31.685Z,8.70
2019-03-21T00:28:33.033Z,10.13
2019-03-21T00:33:34.472Z,10.07
2019-03-21T00:38:36.816Z,10.10
2019-03-21T00:43:38.180Z,9.70
2019-03-21T00:48:39.499Z,8.03
2019-03-21T00:53:40.958Z,8.83
2019-03-21T00:58:42.279Z,10.57
2019-03-21T01:03:43.836Z,8.80
2019-03-21T01:08:45.304Z,9.00
2019-03-21T01:13:46.999Z,8.03
2019-03-21T01:18:48.378Z,7.57
2019-03-21T01:23:49.724Z,7.50
2019-03-21T01:28:51.054Z,7.40
2019-03-21T01:33:52.398Z,7.87
2019-03-21T01:38:53.730Z,8.77
2019-03-21T01:43:55.047Z,8.93
2019-03-21T01:48:57.403Z,8.90
2019-03-21T01:53:58.720Z,9.40
2019-03-21T01:59:01.080Z,8.57
2019-03-21T02:04:02.435Z,9.13
2019-03-21T02:09:07.303Z,8.17
2019-03-21T02:14:08.639Z,7.93
2019-03-21T02:19:09.985Z,7.63
2019-03-21T02:24:11.327Z,8.43
2019-03-21T02:29:12.674Z,7.67
2019-03-21T02:34:14.183Z,7.57
2019-03-21T02:39:15.499Z,8.27
2019-03-21T02:44:17.779Z,7.80
2019-03-21T02:49:19.132Z,7.80
2019-03-21T02:54:20.452Z,8.20
2019-03-21T02:59:21.812Z,8.13
2019-03-21T03:04:23.138Z,8.40
2019-03-21T03:09:24.635Z,8.50
2019-03-21T03:14:25.997Z,8.13
2019-03-21T03:19:27.352Z,7.00
2019-03-21T03:24:28.874Z,8.27
2019-03-21T03:29:30.213Z,7.90
2019-03-21T03:34:33.605Z,6.80
2019-03-21T03:39:37.015Z,7.77
2019-03-21T03:44:38.170Z,8.83
2019-03-21T03:49:39.510Z,8.20
2019-03-21T03:54:41.051Z,8.20
2019-03-21T03:59:42.685Z,7.53
2019-03-21T04:04:44.024Z,8.27
2019-03-21T04:09:45.558Z,8.50
2019-03-21T04:14:46.898Z,8.33
2019-03-21T04:19:48.303Z,8.50
2019-03-21T04:24:49.629Z,8.33
2019-03-21T04:29:50.973Z,8.60
2019-03-21T04:34:52.417Z,9.10
2019-03-21T04:39:53.749Z,8.40
2019-03-21T04:44:55.178Z,8.20
2019-03-21T04:49:56.523Z,8.37
2019-03-21T04:54:57.842Z,8.10
2019-03-21T04:59:59.194Z,7.33
2019-03-21T05:05:00.518Z,7.80
2019-03-21T05:10:05.000Z,8.27
2019-03-21T05:15:14.586Z,8.20
2019-03-21T05:20:27.409Z,9.60
2019-03-21T05:25:28.726Z,10.53
2019-03-21T05:30:38.550Z,9.60
2019-03-21T05:35:39.897Z,9.93
2019-03-21T05:40:41.444Z,9.80
2019-03-21T05:45:42.759Z,10.87
2019-03-21T05:50:44.135Z,11.30
2019-03-21T05:55:45.606Z,12.47
2019-03-21T06:00:57.324Z,11.43
2019-03-21T06:06:09.762Z,12.13
2019-03-21T06:11:11.078Z,12.43
2019-03-21T06:16:12.430Z,14.07
2019-03-21T06:21:34.381Z,12.97
2019-03-21T06:27:14.010Z,13.23
2019-03-21T06:32:09.160Z,13.17
2019-03-21T06:37:10.493Z,13.93
2019-03-21T06:42:11.847Z,15.17
2019-03-21T06:47:13.195Z,14.30
2019-03-21T06:52:14.533Z,13.83
2019-03-21T06:57:15.891Z,15.47
2019-03-21T07:02:17.217Z,16.90
2019-03-21T07:07:18.553Z,16.80
2019-03-21T07:12:19.905Z,17.43
2019-03-21T07:17:22.967Z,19.40
2019-03-21T07:22:24.477Z,19.47
2019-03-21T07:27:25.789Z,20.33
2019-03-21T07:32:33.264Z,18.97
2019-03-21T07:37:30.419Z,19.00
2019-03-21T07:42:32.753Z,17.40
2019-03-21T07:47:34.088Z,17.37
2019-03-21T07:52:35.442Z,17.83
2019-03-21T07:57:36.762Z,16.43
2019-03-21T08:02:38.212Z,16.87
2019-03-21T08:07:39.533Z,17.30
2019-03-21T08:12:41.188Z,17.57
2019-03-21T08:17:42.500Z,17.57
2019-03-21T08:22:43.849Z,16.33
2019-03-21T08:27:45.162Z,15.00
2019-03-21T08:32:46.514Z,14.50
2019-03-21T08:37:47.947Z,14.70
2019-03-21T08:42:49.349Z,14.50
2019-03-21T08:47:50.779Z,14.03
2019-03-21T08:52:52.091Z,14.20
2019-03-21T08:57:53.443Z,14.40
2019-03-21T09:02:54.766Z,15.73
2019-03-21T09:07:56.184Z,16.07
2019-03-21T09:12:57.522Z,15.60
2019-03-21T09:17:58.852Z,17.23
2019-03-21T09:23:00.216Z,16.20
2019-03-21T09:28:02.919Z,17.33
2019-03-21T09:33:04.578Z,18.30
2019-03-21T09:38:05.915Z,17.93
2019-03-21T09:43:07.256Z,17.73
2019-03-21T09:48:08.683Z,16.90
2019-03-21T09:53:09.997Z,16.77
2019-03-21T09:58:11.329Z,17.10
2019-03-21T10:03:12.679Z,15.50
2019-03-21T10:08:13.996Z,16.73
2019-03-21T10:13:15.342Z,16.93
2019-03-21T10:18:17.691Z,16.30
2019-03-21T10:23:19.020Z,15.87
2019-03-21T10:28:20.397Z,15.27
2019-03-21T10:33:21.762Z,17.27
2019-03-21T10:38:23.079Z,16.17
2019-03-21T10:43:24.409Z,15.63
2019-03-21T10:48:25.761Z,13.40
2019-03-21T10:53:27.073Z,15.57
2019-03-21T10:58:28.403Z,14.30
2019-03-21T11:03:29.749Z,13.13
2019-03-21T11:08:31.096Z,14.13
2019-03-21T11:13:32.421Z,15.60
2019-03-21T11:18:36.384Z,13.53
2019-03-21T11:23:37.095Z,15.03
2019-03-21T11:28:38.459Z,13.60
2019-03-21T11:33:39.802Z,13.70
2019-03-21T11:38:41.130Z,15.77
2019-03-21T11:43:42.470Z,15.07
2019-03-21T11:48:43.821Z,15.33
2019-03-21T11:53:45.133Z,16.00
2019-03-21T11:58:46.464Z,16.43
2019-03-21T12:03:47.802Z,19.23
2019-03-21T12:08:49.139Z,14.67
2019-03-21T12:13:50.473Z,14.20
2019-03-21T12:18:51.821Z,12.87
2019-03-21T12:23:53.139Z,13.43
2019-03-21T12:28:54.486Z,13.20
2019-03-21T12:33:55.819Z,13.87
2019-03-21T12:38:57.163Z,15.90
2019-03-21T12:43:58.590Z,14.43
2019-03-21T12:48:59.906Z,14.33
2019-03-21T12:54:01.255Z,14.17
2019-03-21T12:59:02.619Z,16.37
2019-03-21T13:04:04.075Z,15.23
2019-03-21T13:09:06.621Z,13.60
2019-03-21T13:14:07.960Z,14.27
2019-03-21T13:19:09.303Z,14.63
2019-03-21T13:24:10.656Z,14.77
2019-03-21T13:29:11.995Z,15.40
2019-03-21T13:34:13.422Z,16.03
2019-03-21T13:39:14.778Z,15.13
2019-03-21T13:44:16.115Z,14.97
2019-03-21T13:49:17.469Z,14.80
2019-03-21T13:54:18.779Z,13.73
2019-03-21T13:59:21.135Z,15.30
2019-03-21T14:04:22.458Z,15.23
2019-03-21T14:09:23.797Z,15.83
2019-03-21T14:14:25.173Z,14.87
2019-03-21T14:19:26.487Z,15.77
2019-03-21T14:24:27.838Z,14.93
2019-03-21T14:29:29.178Z,16.17
2019-03-21T14:34:30.522Z,13.77
2019-03-21T14:39:32.757Z,14.67
2019-03-21T14:44:34.142Z,13.57
2019-03-21T14:49:35.466Z,13.70
2019-03-21T14:54:36.799Z,15.50
2019-03-21T14:59:38.172Z,14.10
2019-03-21T15:04:39.501Z,11.33
2019-03-21T15:09:40.876Z,13.10
2019-03-21T15:14:42.229Z,12.33
2019-03-21T15:19:43.591Z,11.03
2019-03-21T15:24:44.934Z,12.63
2019-03-21T15:29:46.328Z,14.33
2019-03-21T15:34:47.754Z,13.83
2019-03-21T15:39:49.076Z,12.80
2019-03-21T15:44:51.622Z,13.10
2019-03-21T15:49:53.268Z,12.20
2019-03-21T15:54:54.603Z,12.37
2019-03-21T15:59:55.996Z,13.33
2019-03-21T16:04:57.311Z,13.73
2019-03-21T16:10:00.657Z,13.33
2019-03-21T16:15:05.703Z,13.23
2019-03-21T16:20:08.057Z,13.77
2019-03-21T16:25:09.924Z,12.40
2019-03-21T16:30:12.326Z,13.73
2019-03-21T16:35:13.795Z,14.57
2019-03-21T16:40:15.547Z,13.50
2019-03-21T16:45:17.079Z,13.97
2019-03-21T16:50:18.432Z,14.67
2019-03-21T16:55:19.774Z,13.67
2019-03-21T17:00:27.268Z,16.33
2019-03-21T17:05:28.570Z,14.60
2019-03-21T17:10:31.984Z,14.13
2019-03-21T17:15:34.350Z,13.93
2019-03-21T17:20:35.679Z,14.37
2019-03-21T17:25:37.028Z,13.20
2019-03-21T17:30:38.355Z,14.13
2019-03-21T17:35:39.693Z,13.57
2019-03-21T17:40:41.028Z,13.23
2019-03-21T17:45:43.526Z,13.63
2019-03-21T17:50:44.852Z,13.40
2019-03-21T17:55:46.194Z,13.97
2019-03-21T18:00:47.521Z,12.13
2019-03-21T18:05:48.933Z,13.53
2019-03-21T18:10:50.286Z,14.93
2019-03-21T18:15:51.648Z,17.20
2019-03-21T18:20:52.995Z,14.60
2019-03-21T18:25:54.336Z,13.63
2019-03-21T18:30:57.411Z,15.20
2019-03-21T18:35:58.834Z,14.20
2019-03-21T18:41:00.192Z,12.70
2019-03-21T18:46:01.528Z,14.43
2019-03-21T18:51:04.047Z,13.53
2019-03-21T18:56:09.182Z,11.93
2019-03-21T19:01:09.743Z,14.70
2019-03-21T19:06:11.121Z,14.73
2019-03-21T19:11:12.468Z,16.97
2019-03-21T19:16:13.814Z,18.10
2019-03-21T19:21:15.133Z,18.80
2019-03-21T19:26:16.516Z,20.03
2019-03-21T19:31:17.872Z,23.20
2019-03-21T19:36:19.297Z,21.27
2019-03-21T19:41:20.633Z,22.73
2019-03-21T19:46:22.026Z,24.17
2019-03-21T19:51:23.365Z,25.23
2019-03-21T19:56:24.742Z,27.67
2019-03-21T20:01:26.085Z,27.00
2019-03-21T20:06:27.450Z,28.20
2019-03-21T20:11:28.916Z,24.63
2019-03-21T20:16:30.295Z,25.87
2019-03-21T20:21:31.665Z,22.83
2019-03-21T20:26:33.037Z,22.23
2019-03-21T20:31:34.679Z,22.67
2019-03-21T20:36:36.173Z,22.70
2019-03-21T20:41:37.568Z,22.20
2019-03-21T20:46:38.915Z,21.37
2019-03-21T20:51:40.329Z,21.23
2019-03-21T20:56:41.716Z,21.77
2019-03-21T21:01:43.092Z,21.40
2019-03-21T21:06:44.468Z,20.40
2019-03-21T21:11:45.796Z,21.93
2019-03-21T21:16:47.157Z,22.87
2019-03-21T21:21:48.483Z,23.37
2019-03-21T21:26:49.838Z,23.20
2019-03-21T21:31:51.506Z,22.90
2019-03-21T21:36:55.917Z,23.60
2019-03-21T21:41:59.592Z,23.17
2019-03-21T21:47:02.446Z,24.57
2019-03-21T21:52:04.170Z,23.97
2019-03-21T21:57:05.489Z,23.57
2019-03-21T22:02:06.857Z,24.30
2019-03-21T22:07:08.243Z,25.07
2019-03-21T22:12:09.696Z,25.10
2019-03-21T22:17:14.053Z,25.90
2019-03-21T22:22:15.491Z,25.90
2019-03-21T22:27:17.218Z,24.40
2019-03-21T22:32:18.940Z,25.73
2019-03-21T22:37:20.274Z,24.67
2019-03-21T22:42:21.734Z,25.17
2019-03-21T22:47:23.059Z,26.30
2019-03-21T22:52:24.410Z,25.67
2019-03-21T22:57:25.729Z,26.00
2019-03-21T23:02:27.275Z,26.47
2019-03-21T23:07:28.615Z,27.20
2019-03-21T23:12:29.951Z,26.33
2019-03-21T23:17:31.392Z,27.00
2019-03-21T23:22:32.726Z,26.37
2019-03-21T23:27:34.074Z,28.57
2019-03-21T23:32:35.491Z,27.87
2019-03-21T23:37:36.934Z,29.60
2019-03-21T23:42:38.370Z,27.57
2019-03-21T23:47:39.788Z,28.43
2019-03-21T23:52:41.439Z,28.97
2019-03-21T23:57:42.964Z,29.53
